Latest Weather Observations for Mandurah

IDW60801

Issued at 3:32 am WST Friday 29 April 2016 (issued every 30 minutes, with the page automatically refreshed every 10 minutes)

About weather observations | Map of weather stations | Latest weather observations for WA | Other Formats
Station Details ID: 009977 Name: MANDURAH Lat: -32.52 Lon: 115.71 Height: 3.0 m
Data from the previous 72 hours. | See also: Recent months at Mandurah
Date/Time
WST
Temp
°C
App
Temp
°C
Dew
Point
Rel
Hum
%
Delta-T
°C
Wind Press
QNH
hPa
Press
MSL
hPa
Rain
since 9 am
mm
Dir
 
Spd
km/h
Gust
km/h
Spd
kts
Gust
kts
29/03:30am 17.4 15.7 12.3 72 2.8 WSW 13 20 7 11 1014.7 1014.7 0.2
29/03:00am 17.7 15.1 11.9 69 3.2 WSW 17 26 9 14 1015.2 1015.2 0.0
29/02:30am 18.1 15.4 11.7 66 3.5 WSW 17 26 9 14 1015.0 1015.0 0.0
29/02:00am 18.2 15.6 12.0 67 3.4 WSW 17 30 9 16 1015.0 1015.0 0.0
29/01:30am 18.2 15.4 11.3 64 3.8 WSW 17 26 9 14 1014.9 1014.9 0.0
29/01:00am 17.8 15.6 10.9 64 3.7 SW 13 20 7 11 1014.7 1014.7 0.0
29/12:30am 17.9 15.5 11.5 66 3.5 SW 15 24 8 13 1014.8 1014.8 0.0
29/12:00am 18.2 15.4 11.5 65 3.7 SW 17 24 9 13 1014.9 1014.9 0.0
 
Date/Time
WST
Temp
°C
App
Temp
°C
Dew
Point
Rel
Hum
%
Delta-T
°C
Wind Press
QNH
hPa
Press
MSL
hPa
Rain
since 9 am
mm
Dir
 
Spd
km/h
Gust
km/h
Spd
kts
Gust
kts
28/11:30pm 18.3 15.3 10.7 61 4.1 WSW 17 24 9 13 1015.1 1015.1 0.0
28/11:00pm 18.2 15.4 11.5 65 3.7 SW 17 24 9 13 1015.3 1015.3 0.0
28/10:30pm 18.1 16.0 11.0 63 3.8 SW 13 19 7 10 1015.4 1015.4 0.0
28/10:00pm 18.0 16.9 11.8 67 3.4 SW 9 19 5 10 1015.4 1015.4 0.0
28/09:30pm 17.2 16.1 12.1 72 2.8 SSW 9 17 5 9 1015.4 1015.4 0.0
28/09:00pm 17.9 14.1 12.4 70 3.0 SW 24 37 13 20 1015.3 1015.3 0.0
28/08:30pm 18.2 16.1 11.3 64 3.8 SW 13 19 7 10 1015.1 1015.1 0.0
28/08:00pm 18.5 15.8 11.6 64 3.8 SW 17 26 9 14 1015.0 1015.0 0.0
28/07:30pm 18.3 16.0 11.6 65 3.7 SW 15 24 8 13 1014.8 1014.8 0.0
28/07:00pm 18.6 15.2 10.7 60 4.3 SW 19 30 10 16 1014.7 1014.7 0.0
28/06:30pm 18.3 16.0 11.8 66 3.6 SW 15 26 8 14 1014.3 1014.3 0.0
28/06:00pm 18.7 15.2 11.0 61 4.2 WSW 20 28 11 15 1014.0 1014.0 0.0
28/05:30pm 18.9 15.5 11.2 61 4.2 SW 20 28 11 15 1013.8 1013.8 0.0
28/05:00pm 19.1 15.5 10.6 58 4.6 SW 20 33 11 18 1013.7 1013.7 0.0
28/04:30pm 19.6 15.7 12.1 62 4.2 SW 24 37 13 20 1013.3 1013.3 0.0
28/04:00pm 20.1 15.5 11.1 56 4.9 SW 26 39 14 21 1013.1 1013.1 0.0
28/03:30pm 20.4 15.4 11.1 55 5.1 WSW 28 43 15 23 1013.0 1013.0 0.0
28/03:00pm 20.5 15.8 12.0 58 4.7 WSW 28 43 15 23 1013.0 1013.0 0.0
28/02:30pm 20.0 15.4 12.3 61 4.3 WSW 28 41 15 22 1012.8 1012.8 0.0
28/02:00pm 19.7 17.3 14.5 72 3.0 WSW 20 33 11 18 1012.8 1012.8 0.0
28/01:30pm 18.6 16.4 14.5 77 2.4 WSW 19 32 10 17 1012.8 1012.8 0.0
28/01:00pm 17.6 12.8 14.1 80 2.0 WSW 32 50 17 27 1013.4 1013.4 0.0
28/12:54pm 18.6 14.0 14.5 77 2.4 W 32 50 17 27 1013.4 1013.4 0.0
28/12:30pm 17.3 13.6 14.9 86 1.4 W 28 39 15 21 1013.6 1013.6 0.0
28/12:17pm 18.2 12.8 13.9 76 2.5 WSW 35 56 19 30 1013.9 1013.9 0.0
28/12:07pm 19.9 14.5 14.0 69 3.4 W 35 50 19 27 1013.7 1013.7 0.0
28/12:00pm 19.4 14.5 15.3 77 2.4 WNW 35 46 19 25 1013.5 1013.5 0.0
28/11:30am 19.4 14.3 13.6 69 3.3 W 33 43 18 23 1013.9 1013.9 0.0
28/11:00am 18.9 13.8 14.8 77 2.4 WNW 35 44 19 24 1013.9 1013.9 0.0
28/10:30am 18.1 12.4 14.2 78 2.2 WNW 37 50 20 27 1014.2 1014.2 0.0
28/10:11am 17.0 11.5 13.5 80 2.0 W 35 54 19 29 1014.8 1014.8 0.0
28/10:00am 19.2 12.9 12.2 64 3.9 WNW 37 50 20 27 1014.4 1014.4 0.0
28/09:30am 19.3 13.8 12.6 65 3.8 WNW 33 44 18 24 1014.4 1014.4 0.0
28/09:00am 18.8 12.7 10.6 59 4.4 WNW 33 50 18 27 1014.6 1014.6 1.4
28/08:30am 18.7 12.6 9.8 56 4.7 WNW 32 39 17 21 1014.4 1014.4 1.4
28/08:00am 18.3 12.8 10.4 60 4.2 W 30 41 16 22 1014.2 1014.2 1.4
28/07:30am 18.2 12.3 10.6 61 4.1 W 32 44 17 24 1014.0 1014.0 1.4
28/07:00am 18.0 13.0 10.9 63 3.8 W 28 39 15 21 1013.9 1013.9 1.4
28/06:30am 17.8 12.7 10.7 63 3.8 W 28 37 15 20 1013.8 1013.8 1.4
28/06:00am 17.6 13.3 10.7 64 3.7 W 24 35 13 19 1013.8 1013.8 1.4
28/05:30am 17.5 13.3 9.7 60 4.1 W 22 30 12 16 1013.8 1013.8 1.4
28/05:00am 17.4 12.9 10.1 62 3.9 W 24 37 13 20 1013.8 1013.8 1.4
28/04:30am 16.9 12.4 11.4 70 3.0 W 26 35 14 19 1013.8 1013.8 1.4
28/04:00am 16.2 14.5 11.2 72 2.7 W 11 15 6 8 1014.2 1014.2 1.4
28/03:41am 15.8 10.0 10.8 72 2.7 WNW 32 52 17 28 1014.6 1014.6 1.4
28/03:30am 16.6 10.9 11.7 73 2.7 W 33 50 18 27 1014.5 1014.5 1.4
28/03:26am 16.7 11.6 11.8 73 2.7 W 30 50 16 27 1014.5 1014.5 1.4
28/03:00am 17.4 12.3 10.5 64 3.7 WNW 28 35 15 19 1014.5 1014.5 1.4
28/02:30am 16.8 13.3 10.2 65 3.5 WNW 19 24 10 13 1014.9 1014.9 1.4
28/02:00am 16.2 12.2 13.1 82 1.7 WNW 26 37 14 20 1015.3 1015.3 1.4
28/01:53am 15.6 14.4 14.1 91 0.8 NNE 13 33 7 18 1015.4 1015.4 1.4
28/01:30am 13.3 12.5 11.0 86 1.2 ENE 6 9 3 5 1015.5 1015.5 1.4
28/01:00am 14.0 12.5 12.0 88 1.1 NE 11 15 6 8 1015.5 1015.5 1.4
28/12:30am 14.0 11.8 12.2 89 1.0 NNE 15 20 8 11 1015.6 1015.6 1.4
28/12:00am 13.4 13.0 12.9 97 0.3 NE 7 9 4 5 1015.6 1015.6 1.4
 
Date/Time
WST
Temp
°C
App
Temp
°C
Dew
Point
Rel
Hum
%
Delta-T
°C
Wind Press
QNH
hPa
Press
MSL
hPa
Rain
since 9 am
mm
Dir
 
Spd
km/h
Gust
km/h
Spd
kts
Gust
kts
27/11:30pm 12.7 12.1 11.8 94 0.5 ENE 6 7 3 4 1015.9 1015.9 1.4
27/11:00pm 13.0 12.5 12.1 94 0.5 E 6 7 3 4 1016.2 1016.2 1.4
27/10:30pm 13.4 13.0 12.5 94 0.5 ENE 6 9 3 5 1016.5 1016.5 1.4
27/10:00pm 13.2 12.4 11.8 91 0.7 ESE 7 11 4 6 1016.6 1016.6 1.4
27/09:30pm 13.9 12.5 12.1 89 1.0 SE 11 15 6 8 1016.8 1016.8 1.4
27/09:00pm 14.2 13.3 11.4 83 1.5 SW 7 17 4 9 1017.1 1017.1 1.4
27/08:30pm 14.0 13.1 9.4 74 2.4 W 4 6 2 3 1017.0 1017.0 0.0
27/08:00pm 14.4 14.3 9.4 72 2.6 CALM 0 4 0 2 1017.1 1017.1 0.0
27/07:30pm 15.1 14.3 9.7 70 2.8 W 4 6 2 3 1016.8 1016.8 0.0
27/07:00pm 15.0 14.5 9.4 69 2.9 W 2 4 1 2 1016.8 1016.8 0.0
27/06:30pm 14.9 14.7 9.1 68 3.0 CALM 0 0 0 0 1016.6 1016.6 0.0
27/06:00pm 15.5 15.0 9.2 66 3.2 W 2 4 1 2 1016.4 1016.4 0.0
27/05:30pm 16.2 14.9 9.2 63 3.6 W 6 9 3 5 1016.3 1016.3 0.0
27/05:00pm 16.9 14.9 8.8 59 4.2 WSW 9 13 5 7 1016.4 1016.4 0.0
27/04:30pm 17.1 15.7 9.5 61 4.0 W 7 13 4 7 1016.3 1016.3 0.0
27/04:00pm 17.2 16.0 9.4 60 4.1 W 6 9 3 5 1016.3 1016.3 0.0
27/03:30pm 17.4 15.9 9.3 59 4.2 SW 7 13 4 7 1016.4 1016.4 0.0
27/03:00pm 17.8 16.1 9.9 60 4.2 NW 9 15 5 8 1016.3 1016.3 0.0
27/02:30pm 17.5 15.9 8.6 56 4.6 WNW 7 11 4 6 1016.5 1016.5 0.0
27/02:00pm 17.8 16.6 9.4 58 4.4 NNW 6 9 3 5 1016.4 1016.4 0.0
27/01:30pm 17.1 16.3 9.5 61 4.0 N 4 6 2 3 1016.6 1016.6 0.0
27/01:00pm 16.8 16.2 9.0 60 4.0 NW 2 6 1 3 1016.8 1016.8 0.0
27/12:30pm 17.1 16.2 9.3 60 4.1 N 4 6 2 3 1017.1 1017.1 0.0
27/12:00pm 15.6 14.8 9.7 68 3.1 NNW 4 11 2 6 1017.5 1017.5 0.0
27/11:30am 15.3 13.6 9.7 69 2.9 N 9 15 5 8 1017.8 1017.8 0.0
27/11:00am 16.8 15.5 10.0 64 3.6 NNE 7 11 4 6 1018.1 1018.1 0.0
27/10:30am 15.9 13.9 10.2 69 3.0 NNE 11 17 6 9 1018.1 1018.1 0.0
27/10:00am 15.1 13.1 10.3 73 2.5 NNE 11 15 6 8 1018.2 1018.2 0.0
27/09:30am 14.0 12.1 10.4 79 1.9 NNE 11 15 6 8 1018.3 1018.3 0.0
27/09:00am 13.5 11.6 11.9 90 0.9 NE 13 17 7 9 1018.3 1018.3 3.8
27/08:30am 12.5 10.6 11.9 96 0.3 NE 13 19 7 10 1017.9 1017.9 3.8
27/08:00am 11.9 10.2 11.3 96 0.3 NE 11 15 6 8 1018.0 1018.0 3.8
27/07:30am 11.4 10.2 10.3 93 0.6 E 7 11 4 6 1017.9 1017.9 3.2
27/07:00am 11.3 10.2 9.9 91 0.7 ESE 6 9 3 5 1017.5 1017.5 3.2
27/06:30am 11.9 9.6 10.3 90 0.8 ENE 13 19 7 10 1017.1 1017.1 3.2
27/06:00am 11.8 10.2 10.2 90 0.8 NE 9 13 5 7 1016.9 1016.9 3.2
27/05:30am 12.5 10.2 10.6 88 1.0 NNE 13 17 7 9 1017.0 1017.0 3.2
27/05:00am 12.5 10.2 10.6 88 1.0 NNE 13 17 7 9 1016.8 1016.8 3.2
27/04:30am 12.3 11.1 10.2 87 1.1 NNE 7 11 4 6 1016.9 1016.9 3.0
27/04:00am 11.6 10.8 9.7 88 1.0 E 4 6 2 3 1016.5 1016.5 2.8
27/03:30am 11.4 9.9 9.3 87 1.1 E 7 11 4 6 1016.2 1016.2 2.8
27/03:00am 11.9 10.2 10.0 88 1.0 SE 9 13 5 7 1016.1 1016.1 2.8
27/02:30am 11.7 11.1 10.3 91 0.7 ESE 4 6 2 3 1016.3 1016.3 2.8
27/02:00am 11.6 11.7 10.0 90 0.8 CALM 0 4 0 2 1016.4 1016.4 2.8
27/01:30am 11.7 10.5 10.3 91 0.7 ESE 7 11 4 6 1016.1 1016.1 2.4
27/01:00am 11.8 10.5 10.0 89 0.9 ESE 7 11 4 6 1016.2 1016.2 2.0
27/12:30am 11.7 11.8 10.1 90 0.8 CALM 0 6 0 3 1016.2 1016.2 2.0
27/12:00am 11.6 10.9 9.9 89 0.9 E 4 6 2 3 1015.6 1015.6 2.0
 
Date/Time
WST
Temp
°C
App
Temp
°C
Dew
Point
Rel
Hum
%
Delta-T
°C
Wind Press
QNH
hPa
Press
MSL
hPa
Rain
since 9 am
mm
Dir
 
Spd
km/h
Gust
km/h
Spd
kts
Gust
kts
26/11:30pm 12.0 10.7 10.1 88 1.0 ESE 7 9 4 5 1016.0 1016.0 2.0
26/11:00pm 12.2 10.2 10.3 88 1.0 SE 11 13 6 7 1016.1 1016.1 1.8
26/10:30pm 12.6 10.6 10.1 85 1.3 SE 11 19 6 10 1016.0 1016.0 1.8
26/10:00pm 13.3 11.3 10.1 81 1.6 SE 11 17 6 9 1015.7 1015.7 1.8
26/09:30pm 13.9 12.3 10.1 78 2.0 SE 9 13 5 7 1015.5 1015.5 1.8
26/09:00pm 14.4 12.6 9.4 72 2.6 SE 9 11 5 6 1015.4 1015.4 1.4
26/08:30pm 15.0 12.5 9.6 70 2.8 SSE 13 20 7 11 1015.0 1015.0 1.4
26/08:00pm 16.0 14.1 9.0 63 3.6 S 9 19 5 10 1014.7 1014.7 1.4
26/07:30pm 16.0 13.8 9.2 64 3.5 S 11 20 6 11 1014.2 1014.2 1.4
26/07:00pm 15.4 12.8 9.5 68 3.0 SSE 13 17 7 9 1014.0 1014.0 1.4
26/06:30pm 16.2 13.2 7.7 57 4.3 SSW 13 20 7 11 1013.7 1013.7 1.4
26/06:00pm 16.1 11.9 8.3 60 4.0 SSW 20 32 11 17 1013.3 1013.3 1.4
26/05:30pm 16.5 12.4 7.7 56 4.4 SSW 19 28 10 15 1012.8 1012.8 1.4
26/05:00pm 16.8 12.1 7.7 55 4.6 SW 22 33 12 18 1012.5 1012.5 1.4
26/04:30pm 17.1 12.5 8.3 56 4.5 SW 22 32 12 17 1012.4 1012.4 1.4
26/04:00pm 16.8 12.7 10.2 65 3.5 SSW 22 35 12 19 1012.3 1012.3 1.4
26/03:46pm 17.3 12.2 10.7 65 3.5 SW 28 48 15 26 1012.2 1012.2 1.4
26/03:30pm 17.8 12.7 7.8 52 5.1 SW 24 39 13 21 1011.9 1011.9 1.4
26/03:00pm 17.3 11.7 10.0 62 3.9 SW 30 46 16 25 1011.5 1011.5 1.4
26/02:52pm 17.4 12.3 10.5 64 3.7 SW 28 46 15 25 1011.5 1011.5 1.4
26/02:30pm 17.0 14.3 11.7 71 2.9 SSW 17 30 9 16 1011.1 1011.1 1.4
26/02:00pm 15.7 14.9 14.1 90 0.9 SW 11 15 6 8 1011.1 1011.1 1.0
26/01:30pm 16.1 13.7 11.5 74 2.5 SW 15 24 8 13 1011.1 1011.1 0.2
26/01:00pm 16.0 12.4 10.7 71 2.8 WSW 20 33 11 18 1011.1 1011.1 0.2
26/12:30pm 15.5 10.7 11.5 77 2.2 SW 28 43 15 23 1011.2 1011.2 0.2
26/12:00pm 15.5 10.0 12.6 83 1.6 SW 33 57 18 31 1011.2 1011.2 0.0
26/11:39am 15.5 11.4 13.7 89 1.0 SW 28 46 15 25 1011.2 1011.2 0.0
26/11:30am 15.6 11.2 12.9 84 1.5 SW 28 43 15 23 1011.0 1011.0 0.0
26/11:00am 16.5 12.3 13.4 82 1.7 SSW 28 48 15 26 1010.5 1010.5 0.0
26/10:43am 18.5 13.0 12.0 66 3.6 SW 32 54 17 29 1010.0 1010.0 0.0
26/10:30am 18.2 12.8 12.9 71 3.0 SW 33 50 18 27 1009.8 1009.8 0.0
26/10:00am 17.7 12.8 14.2 80 2.0 SW 33 56 18 30 1009.1 1009.1 0.0
26/09:44am 18.5 12.4 14.0 75 2.6 WSW 39 61 21 33 1008.9 1008.9 0.0
26/09:41am 18.9 13.2 14.2 74 2.7 WSW 37 61 20 33 1008.9 1008.9 0.0
26/09:30am 19.7 14.8 14.3 71 3.1 W 33 56 18 30 1008.6 1008.6 0.0
26/09:00am 19.1 15.2 15.6 80 2.1 W 30 44 16 24 1008.8 1008.8 2.6
26/08:30am 18.3 15.1 17.3 94 0.6 WNW 30 35 16 19 1008.6 1008.6 2.6
26/08:02am 17.4 13.4 16.1 92 0.8 W 32 52 17 28 1008.7 1008.7 2.4
26/08:00am 17.6 13.9 15.9 90 1.0 W 30 46 16 25 1008.7 1008.7 2.4
26/07:30am 18.4 14.2 15.8 85 1.5 WNW 32 39 17 21 1008.2 1008.2 1.4
26/07:09am 17.4 12.0 15.9 91 0.9 W 39 59 21 32 1008.3 1008.3 1.4
26/07:00am 18.4 12.2 14.9 80 2.0 W 41 57 22 31 1008.1 1008.1 1.4
26/06:30am 19.8 14.6 14.4 71 3.1 WNW 35 43 19 23 1007.6 1007.6 1.4
26/06:00am 19.6 14.2 14.0 70 3.2 WNW 35 43 19 23 1007.7 1007.7 1.4
26/05:30am 19.5 14.3 13.4 68 3.5 WNW 33 43 18 23 1007.9 1007.9 1.4
26/05:11am 18.9 12.9 13.3 70 3.2 W 37 56 20 30 1008.0 1008.0 1.4
26/05:00am 18.4 12.0 15.3 82 1.8 W 43 61 23 33 1008.1 1008.1 1.4
26/04:30am 19.4 14.1 14.2 72 3.0 WNW 35 46 19 25 1008.0 1008.0 1.4
26/04:00am 19.5 15.3 14.7 74 2.8 WNW 30 41 16 22 1008.2 1008.2 1.4

Other Formats:

Comma delimited format used in spreadsheet applications
http://www.bom.gov.au/fwo/IDW60801/IDW60801.94605.axf

JavaScript Object Notation format (JSON) in row-major order
http://www.bom.gov.au/fwo/IDW60801/IDW60801.94605.json